sensor_id;sensor_type;location;lat;lon;timestamp;P1;durP1;ratioP1;P2;durP2;ratioP2
23472;SDS011;11909;52.516;13.564;2022-12-18T00:03:48;47.33;;;18.52;;
23472;SDS011;11909;52.516;13.564;2022-12-18T00:08:45;54.60;;;20.65;;
23472;SDS011;11909;52.516;13.564;2022-12-18T00:11:14;56.40;;;21.38;;
23472;SDS011;11909;52.516;13.564;2022-12-18T00:13:43;55.30;;;22.50;;
23472;SDS011;11909;52.516;13.564;2022-12-18T00:16:13;57.42;;;22.08;;
23472;SDS011;11909;52.516;13.564;2022-12-18T00:18:44;61.03;;;22.38;;
23472;SDS011;11909;52.516;13.564;2022-12-18T00:21:13;70.13;;;23.55;;
23472;SDS011;11909;52.516;13.564;2022-12-18T00:23:42;57.03;;;21.42;;
23472;SDS011;11909;52.516;13.564;2022-12-18T00:26:11;65.63;;;23.08;;
23472;SDS011;11909;52.516;13.564;2022-12-18T00:28:42;67.53;;;23.88;;
23472;SDS011;11909;52.516;13.564;2022-12-18T00:31:11;79.05;;;25.77;;
23472;SDS011;11909;52.516;13.564;2022-12-18T00:33:41;83.07;;;28.75;;
23472;SDS011;11909;52.516;13.564;2022-12-18T00:36:10;78.50;;;27.52;;
23472;SDS011;11909;52.516;13.564;2022-12-18T00:38:41;79.50;;;27.42;;
23472;SDS011;11909;52.516;13.564;2022-12-18T00:41:09;82.80;;;28.98;;
23472;SDS011;11909;52.516;13.564;2022-12-18T00:43:38;66.20;;;21.53;;
23472;SDS011;11909;52.516;13.564;2022-12-18T00:46:06;88.57;;;28.27;;
23472;SDS011;11909;52.516;13.564;2022-12-18T00:48:34;77.07;;;27.95;;
23472;SDS011;11909;52.516;13.564;2022-12-18T00:51:02;83.35;;;28.70;;
23472;SDS011;11909;52.516;13.564;2022-12-18T00:53:30;84.35;;;29.05;;
23472;SDS011;11909;52.516;13.564;2022-12-18T00:55:59;74.63;;;25.58;;
23472;SDS011;11909;52.516;13.564;2022-12-18T00:58:26;78.07;;;26.77;;
23472;SDS011;11909;52.516;13.564;2022-12-18T01:00:54;74.85;;;26.23;;
23472;SDS011;11909;52.516;13.564;2022-12-18T01:03:22;77.85;;;26.17;;
23472;SDS011;11909;52.516;13.564;2022-12-18T01:05:49;73.43;;;27.33;;
23472;SDS011;11909;52.516;13.564;2022-12-18T01:08:17;80.25;;;28.10;;
23472;SDS011;11909;52.516;13.564;2022-12-18T01:10:45;72.90;;;28.08;;
23472;SDS011;11909;52.516;13.564;2022-12-18T01:13:14;82.65;;;28.27;;
23472;SDS011;11909;52.516;13.564;2022-12-18T01:15:47;82.00;;;28.83;;
23472;SDS011;11909;52.516;13.564;2022-12-18T01:18:15;73.28;;;27.98;;
23472;SDS011;11909;52.516;13.564;2022-12-18T01:20:43;62.80;;;25.40;;
23472;SDS011;11909;52.516;13.564;2022-12-18T01:23:11;68.25;;;24.48;;
23472;SDS011;11909;52.516;13.564;2022-12-18T01:25:38;71.90;;;27.08;;
23472;SDS011;11909;52.516;13.564;2022-12-18T01:28:06;66.63;;;26.00;;
23472;SDS011;11909;52.516;13.564;2022-12-18T01:30:35;63.78;;;23.98;;
23472;SDS011;11909;52.516;13.564;2022-12-18T01:33:03;61.55;;;24.17;;
23472;SDS011;11909;52.516;13.564;2022-12-18T01:35:31;60.95;;;22.70;;
23472;SDS011;11909;52.516;13.564;2022-12-18T01:37:59;71.55;;;26.00;;
23472;SDS011;11909;52.516;13.564;2022-12-18T01:40:26;64.93;;;24.08;;
23472;SDS011;11909;52.516;13.564;2022-12-18T01:42:54;65.60;;;24.63;;
23472;SDS011;11909;52.516;13.564;2022-12-18T01:45:22;65.07;;;23.52;;
23472;SDS011;11909;52.516;13.564;2022-12-18T01:47:55;64.28;;;26.02;;
23472;SDS011;11909;52.516;13.564;2022-12-18T01:50:27;61.38;;;24.85;;
23472;SDS011;11909;52.516;13.564;2022-12-18T01:52:59;58.53;;;24.20;;
23472;SDS011;11909;52.516;13.564;2022-12-18T01:55:30;59.40;;;24.67;;
23472;SDS011;11909;52.516;13.564;2022-12-18T01:58:03;61.28;;;23.42;;
23472;SDS011;11909;52.516;13.564;2022-12-18T02:00:31;58.83;;;22.70;;
23472;SDS011;11909;52.516;13.564;2022-12-18T02:03:00;55.58;;;22.30;;
23472;SDS011;11909;52.516;13.564;2022-12-18T02:05:31;62.17;;;24.33;;
23472;SDS011;11909;52.516;13.564;2022-12-18T02:08:08;58.88;;;21.67;;
23472;SDS011;11909;52.516;13.564;2022-12-18T02:10:42;53.65;;;21.08;;
23472;SDS011;11909;52.516;13.564;2022-12-18T02:13:18;50.45;;;20.15;;
23472;SDS011;11909;52.516;13.564;2022-12-18T02:15:51;50.50;;;20.58;;
23472;SDS011;11909;52.516;13.564;2022-12-18T02:18:27;50.90;;;20.58;;
23472;SDS011;11909;52.516;13.564;2022-12-18T02:20:59;51.90;;;20.10;;
23472;SDS011;11909;52.516;13.564;2022-12-18T02:23:37;44.95;;;18.58;;
23472;SDS011;11909;52.516;13.564;2022-12-18T02:26:19;51.03;;;19.40;;
23472;SDS011;11909;52.516;13.564;2022-12-18T02:28:55;51.33;;;18.95;;
23472;SDS011;11909;52.516;13.564;2022-12-18T02:31:27;57.55;;;18.35;;
23472;SDS011;11909;52.516;13.564;2022-12-18T02:33:58;53.63;;;19.52;;
23472;SDS011;11909;52.516;13.564;2022-12-18T02:36:29;50.17;;;18.63;;
23472;SDS011;11909;52.516;13.564;2022-12-18T02:38:59;49.97;;;19.52;;
23472;SDS011;11909;52.516;13.564;2022-12-18T02:41:30;50.65;;;19.75;;
23472;SDS011;11909;52.516;13.564;2022-12-18T02:44:00;45.95;;;19.35;;
23472;SDS011;11909;52.516;13.564;2022-12-18T02:46:34;51.15;;;19.33;;
23472;SDS011;11909;52.516;13.564;2022-12-18T02:49:10;44.75;;;18.33;;
23472;SDS011;11909;52.516;13.564;2022-12-18T02:51:50;42.95;;;17.70;;
23472;SDS011;11909;52.516;13.564;2022-12-18T02:54:31;45.70;;;18.55;;
23472;SDS011;11909;52.516;13.564;2022-12-18T02:57:13;48.65;;;18.92;;
23472;SDS011;11909;52.516;13.564;2022-12-18T02:59:47;47.10;;;18.95;;
23472;SDS011;11909;52.516;13.564;2022-12-18T03:02:25;45.47;;;19.00;;
23472;SDS011;11909;52.516;13.564;2022-12-18T03:05:01;47.20;;;19.52;;
23472;SDS011;11909;52.516;13.564;2022-12-18T03:07:36;51.03;;;20.08;;
23472;SDS011;11909;52.516;13.564;2022-12-18T03:10:07;51.15;;;20.08;;
23472;SDS011;11909;52.516;13.564;2022-12-18T03:12:41;51.25;;;21.30;;
23472;SDS011;11909;52.516;13.564;2022-12-18T03:15:13;55.28;;;21.33;;
23472;SDS011;11909;52.516;13.564;2022-12-18T03:17:46;54.17;;;21.17;;
23472;SDS011;11909;52.516;13.564;2022-12-18T03:20:19;56.75;;;20.02;;
23472;SDS011;11909;52.516;13.564;2022-12-18T03:22:50;54.17;;;21.42;;
23472;SDS011;11909;52.516;13.564;2022-12-18T03:25:20;57.42;;;22.52;;
23472;SDS011;11909;52.516;13.564;2022-12-18T03:27:51;52.93;;;21.33;;
23472;SDS011;11909;52.516;13.564;2022-12-18T03:30:23;60.95;;;21.63;;
23472;SDS011;11909;52.516;13.564;2022-12-18T03:32:53;57.17;;;20.75;;
23472;SDS011;11909;52.516;13.564;2022-12-18T03:35:28;56.72;;;19.88;;
23472;SDS011;11909;52.516;13.564;2022-12-18T03:37:59;47.72;;;20.15;;
23472;SDS011;11909;52.516;13.564;2022-12-18T03:40:29;54.97;;;19.95;;
23472;SDS011;11909;52.516;13.564;2022-12-18T03:43:03;49.25;;;18.55;;
23472;SDS011;11909;52.516;13.564;2022-12-18T03:45:36;44.47;;;18.33;;
23472;SDS011;11909;52.516;13.564;2022-12-18T03:48:09;49.55;;;20.98;;
23472;SDS011;11909;52.516;13.564;2022-12-18T03:50:45;51.75;;;19.30;;
23472;SDS011;11909;52.516;13.564;2022-12-18T03:53:18;53.60;;;20.83;;
23472;SDS011;11909;52.516;13.564;2022-12-18T03:55:54;47.90;;;19.10;;
23472;SDS011;11909;52.516;13.564;2022-12-18T03:58:25;39.20;;;15.43;;
23472;SDS011;11909;52.516;13.564;2022-12-18T04:00:56;45.67;;;20.20;;
23472;SDS011;11909;52.516;13.564;2022-12-18T04:03:27;51.85;;;20.83;;
23472;SDS011;11909;52.516;13.564;2022-12-18T04:05:57;47.05;;;19.98;;
23472;SDS011;11909;52.516;13.564;2022-12-18T04:08:28;50.97;;;20.15;;
23472;SDS011;11909;52.516;13.564;2022-12-18T04:10:56;54.30;;;19.67;;
23472;SDS011;11909;52.516;13.564;2022-12-18T04:13:27;47.92;;;19.45;;
23472;SDS011;11909;52.516;13.564;2022-12-18T04:15:56;47.38;;;18.98;;
23472;SDS011;11909;52.516;13.564;2022-12-18T04:18:24;45.15;;;18.17;;
23472;SDS011;11909;52.516;13.564;2022-12-18T04:20:52;40.40;;;16.90;;
23472;SDS011;11909;52.516;13.564;2022-12-18T04:23:21;43.03;;;18.75;;
23472;SDS011;11909;52.516;13.564;2022-12-18T04:25:49;50.42;;;19.77;;
23472;SDS011;11909;52.516;13.564;2022-12-18T04:28:16;47.80;;;19.52;;
23472;SDS011;11909;52.516;13.564;2022-12-18T04:30:46;45.40;;;18.17;;
23472;SDS011;11909;52.516;13.564;2022-12-18T04:33:16;41.05;;;18.05;;
23472;SDS011;11909;52.516;13.564;2022-12-18T04:35:44;43.38;;;18.42;;
23472;SDS011;11909;52.516;13.564;2022-12-18T04:38:12;50.53;;;19.50;;
23472;SDS011;11909;52.516;13.564;2022-12-18T04:40:40;45.95;;;18.45;;
23472;SDS011;11909;52.516;13.564;2022-12-18T04:43:08;45.63;;;18.45;;
23472;SDS011;11909;52.516;13.564;2022-12-18T04:45:37;50.38;;;19.13;;
23472;SDS011;11909;52.516;13.564;2022-12-18T04:48:07;47.92;;;19.95;;
23472;SDS011;11909;52.516;13.564;2022-12-18T04:50:35;44.90;;;19.48;;
23472;SDS011;11909;52.516;13.564;2022-12-18T04:53:03;49.35;;;19.02;;
23472;SDS011;11909;52.516;13.564;2022-12-18T04:55:31;47.17;;;19.10;;
23472;SDS011;11909;52.516;13.564;2022-12-18T04:57:58;44.53;;;18.95;;
23472;SDS011;11909;52.516;13.564;2022-12-18T05:00:26;47.22;;;19.17;;
23472;SDS011;11909;52.516;13.564;2022-12-18T05:02:54;43.42;;;18.45;;
23472;SDS011;11909;52.516;13.564;2022-12-18T05:05:23;52.72;;;20.38;;
23472;SDS011;11909;52.516;13.564;2022-12-18T05:07:51;48.38;;;19.10;;
23472;SDS011;11909;52.516;13.564;2022-12-18T05:10:18;47.78;;;18.27;;
23472;SDS011;11909;52.516;13.564;2022-12-18T05:12:46;45.30;;;19.48;;
23472;SDS011;11909;52.516;13.564;2022-12-18T05:15:27;50.58;;;20.35;;
23472;SDS011;11909;52.516;13.564;2022-12-18T05:17:55;42.90;;;18.15;;
23472;SDS011;11909;52.516;13.564;2022-12-18T05:20:25;48.63;;;18.50;;
23472;SDS011;11909;52.516;13.564;2022-12-18T05:22:54;45.95;;;17.88;;
23472;SDS011;11909;52.516;13.564;2022-12-18T05:25:23;48.63;;;18.85;;
23472;SDS011;11909;52.516;13.564;2022-12-18T05:27:51;41.53;;;17.70;;
23472;SDS011;11909;52.516;13.564;2022-12-18T05:30:18;45.75;;;19.35;;
23472;SDS011;11909;52.516;13.564;2022-12-18T05:32:46;43.53;;;17.50;;
23472;SDS011;11909;52.516;13.564;2022-12-18T05:35:14;45.70;;;17.33;;
23472;SDS011;11909;52.516;13.564;2022-12-18T05:37:42;44.20;;;17.42;;
23472;SDS011;11909;52.516;13.564;2022-12-18T05:40:11;42.25;;;17.65;;
23472;SDS011;11909;52.516;13.564;2022-12-18T05:42:39;47.63;;;17.38;;
23472;SDS011;11909;52.516;13.564;2022-12-18T05:45:07;49.13;;;18.52;;
23472;SDS011;11909;52.516;13.564;2022-12-18T05:47:35;47.63;;;18.45;;
23472;SDS011;11909;52.516;13.564;2022-12-18T05:50:03;51.25;;;18.13;;
23472;SDS011;11909;52.516;13.564;2022-12-18T05:52:31;50.63;;;18.95;;
23472;SDS011;11909;52.516;13.564;2022-12-18T05:55:00;49.10;;;19.05;;
23472;SDS011;11909;52.516;13.564;2022-12-18T05:57:28;52.83;;;18.75;;
23472;SDS011;11909;52.516;13.564;2022-12-18T05:59:56;49.45;;;18.00;;
23472;SDS011;11909;52.516;13.564;2022-12-18T06:02:23;53.28;;;20.08;;
23472;SDS011;11909;52.516;13.564;2022-12-18T06:04:51;51.08;;;18.77;;
23472;SDS011;11909;52.516;13.564;2022-12-18T06:07:19;50.45;;;18.77;;
23472;SDS011;11909;52.516;13.564;2022-12-18T06:09:47;52.03;;;19.23;;
23472;SDS011;11909;52.516;13.564;2022-12-18T06:12:16;50.15;;;18.67;;
23472;SDS011;11909;52.516;13.564;2022-12-18T06:14:43;50.17;;;18.98;;
23472;SDS011;11909;52.516;13.564;2022-12-18T06:17:11;58.00;;;19.90;;
23472;SDS011;11909;52.516;13.564;2022-12-18T06:19:39;56.75;;;19.98;;
23472;SDS011;11909;52.516;13.564;2022-12-18T06:22:06;54.40;;;20.05;;
23472;SDS011;11909;52.516;13.564;2022-12-18T06:24:34;57.50;;;19.98;;
23472;SDS011;11909;52.516;13.564;2022-12-18T06:27:02;51.30;;;19.35;;
23472;SDS011;11909;52.516;13.564;2022-12-18T06:29:31;55.85;;;19.80;;
23472;SDS011;11909;52.516;13.564;2022-12-18T06:31:58;56.35;;;20.42;;
23472;SDS011;11909;52.516;13.564;2022-12-18T06:34:26;58.47;;;20.88;;
23472;SDS011;11909;52.516;13.564;2022-12-18T06:36:54;61.78;;;20.13;;
23472;SDS011;11909;52.516;13.564;2022-12-18T06:39:21;64.65;;;21.05;;
23472;SDS011;11909;52.516;13.564;2022-12-18T06:41:49;53.10;;;18.90;;
23472;SDS011;11909;52.516;13.564;2022-12-18T06:44:17;56.67;;;19.98;;
23472;SDS011;11909;52.516;13.564;2022-12-18T06:46:46;60.22;;;20.27;;
23472;SDS011;11909;52.516;13.564;2022-12-18T06:49:13;62.53;;;20.65;;
23472;SDS011;11909;52.516;13.564;2022-12-18T06:51:42;60.75;;;21.08;;
23472;SDS011;11909;52.516;13.564;2022-12-18T06:54:10;52.97;;;19.95;;
23472;SDS011;11909;52.516;13.564;2022-12-18T06:56:38;52.20;;;19.20;;
23472;SDS011;11909;52.516;13.564;2022-12-18T06:59:06;54.00;;;20.38;;
23472;SDS011;11909;52.516;13.564;2022-12-18T07:01:33;55.17;;;19.17;;
23472;SDS011;11909;52.516;13.564;2022-12-18T07:04:02;51.67;;;19.63;;
23472;SDS011;11909;52.516;13.564;2022-12-18T07:06:30;50.47;;;19.20;;
23472;SDS011;11909;52.516;13.564;2022-12-18T07:08:58;53.55;;;20.83;;
23472;SDS011;11909;52.516;13.564;2022-12-18T07:11:25;47.97;;;20.55;;
23472;SDS011;11909;52.516;13.564;2022-12-18T07:13:53;58.25;;;20.27;;
23472;SDS011;11909;52.516;13.564;2022-12-18T07:16:21;50.50;;;20.13;;
23472;SDS011;11909;52.516;13.564;2022-12-18T07:18:51;47.67;;;18.83;;
23472;SDS011;11909;52.516;13.564;2022-12-18T07:21:20;48.72;;;18.45;;
23472;SDS011;11909;52.516;13.564;2022-12-18T07:26:17;48.35;;;17.20;;
23472;SDS011;11909;52.516;13.564;2022-12-18T07:28:46;45.47;;;18.85;;
23472;SDS011;11909;52.516;13.564;2022-12-18T07:31:15;46.72;;;18.48;;
23472;SDS011;11909;52.516;13.564;2022-12-18T07:33:44;38.72;;;16.92;;
23472;SDS011;11909;52.516;13.564;2022-12-18T07:36:13;45.53;;;17.65;;
23472;SDS011;11909;52.516;13.564;2022-12-18T07:38:42;46.17;;;18.45;;
23472;SDS011;11909;52.516;13.564;2022-12-18T07:41:11;41.55;;;17.58;;
23472;SDS011;11909;52.516;13.564;2022-12-18T07:43:40;51.72;;;17.85;;
23472;SDS011;11909;52.516;13.564;2022-12-18T07:46:09;39.37;;;17.10;;
23472;SDS011;11909;52.516;13.564;2022-12-18T07:48:39;45.47;;;17.80;;
23472;SDS011;11909;52.516;13.564;2022-12-18T07:51:08;42.78;;;17.83;;
23472;SDS011;11909;52.516;13.564;2022-12-18T07:53:40;42.92;;;17.83;;
23472;SDS011;11909;52.516;13.564;2022-12-18T07:56:10;49.30;;;19.27;;
23472;SDS011;11909;52.516;13.564;2022-12-18T07:58:56;47.00;;;18.02;;
23472;SDS011;11909;52.516;13.564;2022-12-18T08:01:25;50.50;;;19.08;;
23472;SDS011;11909;52.516;13.564;2022-12-18T08:03:53;45.47;;;18.48;;
23472;SDS011;11909;52.516;13.564;2022-12-18T08:06:21;46.95;;;18.83;;
23472;SDS011;11909;52.516;13.564;2022-12-18T08:08:50;47.67;;;18.80;;
23472;SDS011;11909;52.516;13.564;2022-12-18T08:11:20;40.78;;;17.65;;
23472;SDS011;11909;52.516;13.564;2022-12-18T08:13:48;40.55;;;16.58;;
23472;SDS011;11909;52.516;13.564;2022-12-18T08:16:16;46.25;;;18.63;;
23472;SDS011;11909;52.516;13.564;2022-12-18T08:18:45;42.10;;;17.63;;
23472;SDS011;11909;52.516;13.564;2022-12-18T08:21:15;40.05;;;17.15;;
23472;SDS011;11909;52.516;13.564;2022-12-18T08:23:45;41.47;;;17.52;;
23472;SDS011;11909;52.516;13.564;2022-12-18T08:26:14;47.30;;;18.00;;
23472;SDS011;11909;52.516;13.564;2022-12-18T08:28:44;41.67;;;16.17;;
23472;SDS011;11909;52.516;13.564;2022-12-18T08:31:11;43.83;;;16.05;;
23472;SDS011;11909;52.516;13.564;2022-12-18T08:33:40;44.28;;;17.55;;
23472;SDS011;11909;52.516;13.564;2022-12-18T08:36:09;53.58;;;21.52;;
23472;SDS011;11909;52.516;13.564;2022-12-18T08:38:37;45.83;;;16.92;;
23472;SDS011;11909;52.516;13.564;2022-12-18T08:41:05;41.72;;;18.00;;
23472;SDS011;11909;52.516;13.564;2022-12-18T08:43:34;47.38;;;19.23;;
23472;SDS011;11909;52.516;13.564;2022-12-18T08:46:21;48.53;;;18.10;;
23472;SDS011;11909;52.516;13.564;2022-12-18T08:48:51;41.28;;;16.77;;
23472;SDS011;11909;52.516;13.564;2022-12-18T08:51:19;47.03;;;17.73;;
23472;SDS011;11909;52.516;13.564;2022-12-18T08:53:47;41.30;;;17.15;;
23472;SDS011;11909;52.516;13.564;2022-12-18T08:56:15;46.60;;;17.75;;
23472;SDS011;11909;52.516;13.564;2022-12-18T08:58:43;49.50;;;18.17;;
23472;SDS011;11909;52.516;13.564;2022-12-18T09:01:11;45.28;;;18.23;;
23472;SDS011;11909;52.516;13.564;2022-12-18T09:03:41;44.35;;;18.10;;
23472;SDS011;11909;52.516;13.564;2022-12-18T09:06:12;56.67;;;19.77;;
23472;SDS011;11909;52.516;13.564;2022-12-18T09:08:41;48.72;;;19.98;;
23472;SDS011;11909;52.516;13.564;2022-12-18T09:11:13;52.83;;;19.85;;
23472;SDS011;11909;52.516;13.564;2022-12-18T09:13:43;49.22;;;18.17;;
23472;SDS011;11909;52.516;13.564;2022-12-18T09:16:11;47.40;;;18.63;;
23472;SDS011;11909;52.516;13.564;2022-12-18T09:18:38;51.85;;;19.80;;
23472;SDS011;11909;52.516;13.564;2022-12-18T09:21:09;55.80;;;21.45;;
23472;SDS011;11909;52.516;13.564;2022-12-18T09:23:38;62.53;;;24.15;;
23472;SDS011;11909;52.516;13.564;2022-12-18T09:26:06;54.60;;;18.77;;
23472;SDS011;11909;52.516;13.564;2022-12-18T09:28:34;47.75;;;17.70;;
23472;SDS011;11909;52.516;13.564;2022-12-18T09:31:03;52.15;;;19.92;;
23472;SDS011;11909;52.516;13.564;2022-12-18T09:33:33;58.80;;;19.83;;
23472;SDS011;11909;52.516;13.564;2022-12-18T09:36:02;55.25;;;20.50;;
23472;SDS011;11909;52.516;13.564;2022-12-18T09:38:34;47.95;;;18.95;;
23472;SDS011;11909;52.516;13.564;2022-12-18T09:41:04;56.33;;;19.20;;
23472;SDS011;11909;52.516;13.564;2022-12-18T09:43:41;54.22;;;18.25;;
23472;SDS011;11909;52.516;13.564;2022-12-18T09:46:15;46.38;;;17.65;;
23472;SDS011;11909;52.516;13.564;2022-12-18T09:48:46;50.63;;;19.45;;
23472;SDS011;11909;52.516;13.564;2022-12-18T09:51:18;57.08;;;19.50;;
23472;SDS011;11909;52.516;13.564;2022-12-18T09:53:52;50.28;;;19.45;;
23472;SDS011;11909;52.516;13.564;2022-12-18T09:56:22;53.63;;;19.15;;
23472;SDS011;11909;52.516;13.564;2022-12-18T09:58:57;56.88;;;20.45;;
23472;SDS011;11909;52.516;13.564;2022-12-18T10:01:27;49.42;;;18.33;;
23472;SDS011;11909;52.516;13.564;2022-12-18T10:04:09;57.45;;;20.92;;
23472;SDS011;11909;52.516;13.564;2022-12-18T10:06:38;55.28;;;18.90;;
23472;SDS011;11909;52.516;13.564;2022-12-18T10:09:15;72.00;;;27.15;;
23472;SDS011;11909;52.516;13.564;2022-12-18T10:11:48;58.35;;;21.17;;
23472;SDS011;11909;52.516;13.564;2022-12-18T10:14:26;50.92;;;19.48;;
23472;SDS011;11909;52.516;13.564;2022-12-18T10:17:02;53.60;;;18.98;;
23472;SDS011;11909;52.516;13.564;2022-12-18T10:19:43;55.88;;;21.13;;
23472;SDS011;11909;52.516;13.564;2022-12-18T10:22:19;52.60;;;19.42;;
23472;SDS011;11909;52.516;13.564;2022-12-18T10:24:59;59.63;;;21.63;;
23472;SDS011;11909;52.516;13.564;2022-12-18T10:27:32;61.35;;;23.00;;
23472;SDS011;11909;52.516;13.564;2022-12-18T10:29:59;56.55;;;20.77;;
23472;SDS011;11909;52.516;13.564;2022-12-18T10:32:35;49.53;;;20.52;;
23472;SDS011;11909;52.516;13.564;2022-12-18T10:35:04;50.05;;;20.30;;
23472;SDS011;11909;52.516;13.564;2022-12-18T10:37:32;54.40;;;19.75;;
23472;SDS011;11909;52.516;13.564;2022-12-18T10:40:09;51.63;;;18.80;;
23472;SDS011;11909;52.516;13.564;2022-12-18T10:42:47;57.22;;;21.63;;
23472;SDS011;11909;52.516;13.564;2022-12-18T10:45:31;49.70;;;19.60;;
23472;SDS011;11909;52.516;13.564;2022-12-18T10:47:59;48.58;;;18.63;;
23472;SDS011;11909;52.516;13.564;2022-12-18T10:50:27;49.88;;;18.70;;
23472;SDS011;11909;52.516;13.564;2022-12-18T10:53:18;43.97;;;17.27;;
23472;SDS011;11909;52.516;13.564;2022-12-18T10:55:49;42.25;;;16.48;;
23472;SDS011;11909;52.516;13.564;2022-12-18T10:58:21;49.45;;;17.65;;
23472;SDS011;11909;52.516;13.564;2022-12-18T11:01:02;46.50;;;17.23;;
23472;SDS011;11909;52.516;13.564;2022-12-18T11:03:33;39.10;;;14.98;;
23472;SDS011;11909;52.516;13.564;2022-12-18T11:06:04;41.20;;;17.25;;
23472;SDS011;11909;52.516;13.564;2022-12-18T11:08:33;42.00;;;15.82;;
23472;SDS011;11909;52.516;13.564;2022-12-18T11:11:04;41.90;;;17.85;;
23472;SDS011;11909;52.516;13.564;2022-12-18T11:16:18;45.78;;;16.13;;
23472;SDS011;11909;52.516;13.564;2022-12-18T11:18:46;38.00;;;16.25;;
23472;SDS011;11909;52.516;13.564;2022-12-18T11:21:14;40.03;;;16.13;;
23472;SDS011;11909;52.516;13.564;2022-12-18T11:23:45;41.17;;;15.32;;
23472;SDS011;11909;52.516;13.564;2022-12-18T11:26:16;37.35;;;15.98;;
23472;SDS011;11909;52.516;13.564;2022-12-18T11:28:44;38.90;;;15.67;;
23472;SDS011;11909;52.516;13.564;2022-12-18T11:33:46;48.97;;;18.25;;
23472;SDS011;11909;52.516;13.564;2022-12-18T11:36:43;36.50;;;14.80;;
23472;SDS011;11909;52.516;13.564;2022-12-18T11:41:47;39.55;;;14.13;;
23472;SDS011;11909;52.516;13.564;2022-12-18T11:44:41;32.47;;;14.80;;
23472;SDS011;11909;52.516;13.564;2022-12-18T11:47:15;54.53;;;15.00;;
23472;SDS011;11909;52.516;13.564;2022-12-18T11:49:52;35.60;;;13.75;;
23472;SDS011;11909;52.516;13.564;2022-12-18T11:52:23;42.65;;;16.05;;
23472;SDS011;11909;52.516;13.564;2022-12-18T11:54:54;38.33;;;15.57;;
23472;SDS011;11909;52.516;13.564;2022-12-18T11:57:30;35.50;;;14.82;;
23472;SDS011;11909;52.516;13.564;2022-12-18T12:00:09;39.75;;;13.75;;
23472;SDS011;11909;52.516;13.564;2022-12-18T12:05:44;33.13;;;14.38;;
23472;SDS011;11909;52.516;13.564;2022-12-18T12:08:23;33.67;;;13.75;;
23472;SDS011;11909;52.516;13.564;2022-12-18T12:10:59;31.33;;;14.05;;
23472;SDS011;11909;52.516;13.564;2022-12-18T12:13:41;31.55;;;13.45;;
23472;SDS011;11909;52.516;13.564;2022-12-18T12:16:16;27.73;;;13.00;;
23472;SDS011;11909;52.516;13.564;2022-12-18T12:18:59;32.50;;;14.05;;
23472;SDS011;11909;52.516;13.564;2022-12-18T12:21:35;31.60;;;13.55;;
23472;SDS011;11909;52.516;13.564;2022-12-18T12:24:11;30.35;;;12.95;;
23472;SDS011;11909;52.516;13.564;2022-12-18T12:26:56;32.85;;;13.60;;
23472;SDS011;11909;52.516;13.564;2022-12-18T12:29:41;29.13;;;13.80;;
23472;SDS011;11909;52.516;13.564;2022-12-18T12:32:22;29.55;;;12.63;;
23472;SDS011;11909;52.516;13.564;2022-12-18T12:35:02;58.65;;;25.27;;
23472;SDS011;11909;52.516;13.564;2022-12-18T12:37:42;51.47;;;22.02;;
23472;SDS011;11909;52.516;13.564;2022-12-18T12:43:14;36.58;;;14.57;;
23472;SDS011;11909;52.516;13.564;2022-12-18T12:45:50;34.88;;;14.45;;
23472;SDS011;11909;52.516;13.564;2022-12-18T12:48:24;35.10;;;15.18;;
23472;SDS011;11909;52.516;13.564;2022-12-18T12:51:09;35.47;;;14.73;;
23472;SDS011;11909;52.516;13.564;2022-12-18T12:53:41;33.00;;;14.45;;
23472;SDS011;11909;52.516;13.564;2022-12-18T12:56:11;32.60;;;13.40;;
23472;SDS011;11909;52.516;13.564;2022-12-18T12:58:45;34.45;;;14.52;;
23472;SDS011;11909;52.516;13.564;2022-12-18T13:01:25;36.72;;;15.38;;
23472;SDS011;11909;52.516;13.564;2022-12-18T13:04:03;32.40;;;14.20;;
23472;SDS011;11909;52.516;13.564;2022-12-18T13:06:40;31.70;;;14.80;;
23472;SDS011;11909;52.516;13.564;2022-12-18T13:09:13;35.50;;;15.07;;
23472;SDS011;11909;52.516;13.564;2022-12-18T13:11:41;40.63;;;16.25;;
23472;SDS011;11909;52.516;13.564;2022-12-18T13:14:29;49.08;;;21.80;;
23472;SDS011;11909;52.516;13.564;2022-12-18T13:17:15;33.97;;;14.77;;
23472;SDS011;11909;52.516;13.564;2022-12-18T13:19:47;34.42;;;14.85;;
23472;SDS011;11909;52.516;13.564;2022-12-18T13:22:20;37.33;;;15.75;;
23472;SDS011;11909;52.516;13.564;2022-12-18T13:24:50;32.65;;;14.82;;
23472;SDS011;11909;52.516;13.564;2022-12-18T13:33:40;36.38;;;17.02;;
23472;SDS011;11909;52.516;13.564;2022-12-18T13:36:30;36.83;;;15.82;;
23472;SDS011;11909;52.516;13.564;2022-12-18T13:39:10;38.42;;;17.25;;
23472;SDS011;11909;52.516;13.564;2022-12-18T13:45:39;34.42;;;16.42;;
23472;SDS011;11909;52.516;13.564;2022-12-18T13:48:16;32.20;;;16.83;;
23472;SDS011;11909;52.516;13.564;2022-12-18T13:51:00;41.38;;;16.85;;
23472;SDS011;11909;52.516;13.564;2022-12-18T13:53:33;34.28;;;16.70;;
23472;SDS011;11909;52.516;13.564;2022-12-18T13:56:04;30.88;;;15.50;;
23472;SDS011;11909;52.516;13.564;2022-12-18T13:58:33;38.33;;;17.52;;
23472;SDS011;11909;52.516;13.564;2022-12-18T14:01:01;32.67;;;15.52;;
23472;SDS011;11909;52.516;13.564;2022-12-18T14:03:31;35.33;;;15.50;;
23472;SDS011;11909;52.516;13.564;2022-12-18T14:06:01;35.00;;;16.52;;
23472;SDS011;11909;52.516;13.564;2022-12-18T14:08:34;35.22;;;17.55;;
23472;SDS011;11909;52.516;13.564;2022-12-18T14:11:06;35.47;;;16.98;;
23472;SDS011;11909;52.516;13.564;2022-12-18T14:13:38;39.90;;;18.65;;
23472;SDS011;11909;52.516;13.564;2022-12-18T14:16:11;35.97;;;17.25;;
23472;SDS011;11909;52.516;13.564;2022-12-18T14:18:42;41.60;;;17.35;;
23472;SDS011;11909;52.516;13.564;2022-12-18T14:21:21;35.38;;;16.52;;
23472;SDS011;11909;52.516;13.564;2022-12-18T14:24:02;30.77;;;15.90;;
23472;SDS011;11909;52.516;13.564;2022-12-18T14:28:59;35.75;;;16.27;;
23472;SDS011;11909;52.516;13.564;2022-12-18T14:31:29;37.45;;;17.65;;
23472;SDS011;11909;52.516;13.564;2022-12-18T14:33:58;36.03;;;16.75;;
23472;SDS011;11909;52.516;13.564;2022-12-18T14:36:27;35.38;;;15.90;;
23472;SDS011;11909;52.516;13.564;2022-12-18T14:38:56;31.67;;;16.88;;
23472;SDS011;11909;52.516;13.564;2022-12-18T14:41:25;35.67;;;17.63;;
23472;SDS011;11909;52.516;13.564;2022-12-18T14:43:54;34.03;;;16.75;;
23472;SDS011;11909;52.516;13.564;2022-12-18T14:46:26;33.42;;;17.08;;
23472;SDS011;11909;52.516;13.564;2022-12-18T14:48:57;31.50;;;15.68;;
23472;SDS011;11909;52.516;13.564;2022-12-18T14:51:29;29.02;;;15.82;;
23472;SDS011;11909;52.516;13.564;2022-12-18T14:53:58;31.60;;;16.50;;
23472;SDS011;11909;52.516;13.564;2022-12-18T14:56:28;32.37;;;15.70;;
23472;SDS011;11909;52.516;13.564;2022-12-18T15:01:27;30.92;;;14.45;;
23472;SDS011;11909;52.516;13.564;2022-12-18T15:03:57;29.15;;;14.50;;
23472;SDS011;11909;52.516;13.564;2022-12-18T15:06:31;30.77;;;15.30;;
23472;SDS011;11909;52.516;13.564;2022-12-18T15:09:02;31.92;;;15.07;;